»·PEaware :: N20957 KPRC-KSBD

N20957 :: KPRC-KSBD

FLIGHT INFORMATION

Flight Status: Arrived
Operator: Privately registered:
United States
More flights under this callsign
Pilot: Charles P. (32095)
Aircraft: CESSNA 172 SKYHAWK
(C172)
More flights by this aircraft type
Origin: KPRC Love
United States
Destination: KSBD San Bernardino Intl
United States
More flights between these airports :: More routes between these airports
Route:
File this flight plan on PilotEdge
Remarks: N / A
Altitude:
(Current/Filed)
8,500ft
Speed:
(Current/Filed)
124kts
Departed: 28-Apr-21 05:03 PM
Arrived: 28-Apr-21 07:21 PM
Distance/Time
Traveled:
240nm/2:18
Distance/Time
To Go:
Arrived

Flight Plot

Page will automatically refresh every two minutes.

Flight plan parsing failed; only flown route is shown


Map Options




Map Legend


Flown Route
Filed Route
Departure Airport
Arrival Airport
Navaid (VOR, NDB)
Fix

Horizontal Profiles

Position Reports

Time Latitude Longitude Heading Altitude Ground
Speed
28-Apr-21 16:44 34.646918 -112.423418 128 5024ft 0kts
28-Apr-21 16:45 34.646918 -112.423418 128 5024ft 0kts
28-Apr-21 16:46 34.646918 -112.423418 128 5024ft 0kts
28-Apr-21 16:47 34.646918 -112.423418 128 5024ft 0kts
28-Apr-21 16:48 34.646918 -112.423418 128 5024ft 0kts
28-Apr-21 16:49 34.646918 -112.423418 128 5024ft 0kts
28-Apr-21 16:50 34.646919 -112.423418 128 5024ft 0kts
28-Apr-21 16:51 34.646919 -112.423419 127 5024ft 0kts
28-Apr-21 16:52 34.646919 -112.423419 127 5024ft 0kts
28-Apr-21 16:53 34.646919 -112.423419 127 5024ft 0kts
28-Apr-21 16:54 34.646919 -112.423419 127 5024ft 0kts
28-Apr-21 16:55 34.646817 -112.423493 285 5024ft 4kts
28-Apr-21 16:56 34.647641 -112.423091 331 5027ft 9kts
28-Apr-21 16:57 34.647427 -112.425222 220 5023ft 7kts
28-Apr-21 16:58 34.646037 -112.427299 309 5027ft 0kts
28-Apr-21 16:59 34.646037 -112.427299 309 5027ft 0kts
28-Apr-21 17:00 34.646037 -112.427299 309 5027ft 0kts
28-Apr-21 17:01 34.646928 -112.427497 43 5024ft 9kts
28-Apr-21 17:02 34.660451 -112.412813 39 5242ft 89kts
28-Apr-21 17:03 34.663254 -112.390284 118 5846ft 84kts
28-Apr-21 17:04 34.644371 -112.391920 219 6318ft 87kts
28-Apr-21 17:06 34.625924 -112.411036 222 6863ft 88kts
28-Apr-21 17:07 34.610667 -112.431534 283 7359ft 82kts
28-Apr-21 17:08 34.618719 -112.456766 292 7861ft 80kts
28-Apr-21 17:09 34.627783 -112.482002 292 8367ft 83kts
28-Apr-21 17:10 34.638848 -112.512750 293 8492ft 113kts
28-Apr-21 17:11 34.642322 -112.551389 262 8495ft 118kts
28-Apr-21 17:12 34.638245 -112.591351 263 8510ft 121kts
28-Apr-21 17:13 34.634278 -112.631637 263 8499ft 120kts
28-Apr-21 17:14 34.630374 -112.671486 263 8497ft 117kts
28-Apr-21 17:15 34.626470 -112.711346 263 8499ft 119kts
28-Apr-21 17:16 34.622507 -112.751587 263 8500ft 120kts
28-Apr-21 17:17 34.618532 -112.791798 263 8501ft 120kts
28-Apr-21 17:18 34.614557 -112.831885 263 8499ft 119kts
28-Apr-21 17:19 34.610578 -112.871895 263 8497ft 119kts
28-Apr-21 17:20 34.606550 -112.912230 263 8507ft 122kts
28-Apr-21 17:21 34.602466 -112.953000 263 8496ft 121kts
28-Apr-21 17:22 34.598421 -112.993246 263 8495ft 118kts
28-Apr-21 17:23 34.594425 -113.032876 263 8498ft 119kts
28-Apr-21 17:24 34.590364 -113.072929 263 8506ft 120kts
28-Apr-21 17:25 34.586265 -113.113282 263 8500ft 119kts
28-Apr-21 17:26 34.582187 -113.153397 263 8499ft 119kts
28-Apr-21 17:26 34.578756 -113.186955 263 8499ft 120kts
28-Apr-21 17:28 34.573928 -113.234072 263 8496ft 120kts
28-Apr-21 17:29 34.569779 -113.274360 263 8497ft 120kts
28-Apr-21 17:30 34.565583 -113.315022 263 8501ft 122kts
28-Apr-21 17:31 34.561379 -113.355637 263 8497ft 121kts
28-Apr-21 17:31 34.557903 -113.389124 263 8497ft 120kts
28-Apr-21 17:32 34.553715 -113.429230 263 8506ft 120kts
28-Apr-21 17:34 34.548808 -113.476177 263 8498ft 119kts
28-Apr-21 17:35 34.544606 -113.516265 263 8499ft 120kts
28-Apr-21 17:36 34.540338 -113.556770 263 8501ft 121kts
28-Apr-21 17:36 34.536789 -113.590458 263 8497ft 120kts
28-Apr-21 17:37 34.532555 -113.630457 263 8498ft 119kts
28-Apr-21 17:38 34.528298 -113.670556 263 8500ft 119kts
28-Apr-21 17:39 34.524026 -113.710588 262 8499ft 119kts
28-Apr-21 17:40 34.519743 -113.750660 263 8500ft 119kts
28-Apr-21 17:41 34.515457 -113.790655 262 8503ft 120kts
28-Apr-21 17:42 34.511119 -113.830981 262 8499ft 120kts
28-Apr-21 17:43 34.506777 -113.871217 262 8499ft 120kts
28-Apr-21 17:44 34.502426 -113.911409 262 8500ft 120kts
28-Apr-21 17:45 34.498068 -113.951525 262 8502ft 120kts
28-Apr-21 17:46 34.493695 -113.991706 262 8499ft 120kts
28-Apr-21 17:47 34.489315 -114.031806 262 8500ft 119kts
28-Apr-21 17:48 34.484921 -114.071869 262 8501ft 121kts
28-Apr-21 17:49 34.480500 -114.112073 262 8498ft 120kts
28-Apr-21 17:50 34.476070 -114.152241 262 8499ft 120kts
28-Apr-21 17:51 34.471631 -114.192391 262 8500ft 120kts
28-Apr-21 17:52 34.467167 -114.232630 262 8501ft 120kts
28-Apr-21 17:53 34.462675 -114.272964 262 8500ft 120kts
28-Apr-21 17:54 34.458185 -114.313180 262 8500ft 120kts
28-Apr-21 17:55 34.453684 -114.353479 262 8498ft 120kts
28-Apr-21 17:56 34.449178 -114.393542 262 8500ft 120kts
28-Apr-21 17:57 34.444675 -114.433499 262 8500ft 120kts
28-Apr-21 17:58 34.440145 -114.473572 262 8500ft 120kts
28-Apr-21 17:59 34.435601 -114.513697 262 8499ft 120kts
28-Apr-21 18:00 34.431052 -114.553706 262 8499ft 120kts
28-Apr-21 18:01 34.426490 -114.593711 262 8500ft 120kts
28-Apr-21 18:02 34.421899 -114.633870 262 8499ft 120kts
28-Apr-21 18:03 34.417307 -114.673916 262 8499ft 120kts
28-Apr-21 18:04 34.412707 -114.713915 262 8500ft 120kts
28-Apr-21 18:05 34.408080 -114.754002 262 8498ft 119kts
28-Apr-21 18:06 34.414685 -114.789570 295 8500ft 120kts
28-Apr-21 18:07 34.401442 -114.825231 251 8498ft 120kts
28-Apr-21 18:08 34.395312 -114.865202 262 8499ft 121kts
28-Apr-21 18:09 34.390493 -114.905434 262 8498ft 120kts
28-Apr-21 18:10 34.385788 -114.945577 262 8500ft 120kts
28-Apr-21 18:11 34.381067 -114.985864 262 8500ft 120kts
28-Apr-21 18:12 34.376331 -115.026113 262 8498ft 120kts
28-Apr-21 18:13 34.371622 -115.066050 262 8499ft 120kts
28-Apr-21 18:14 34.366876 -115.106152 262 8500ft 120kts
28-Apr-21 18:15 34.362133 -115.146058 262 8498ft 119kts
28-Apr-21 18:16 34.357404 -115.185822 262 8500ft 119kts
28-Apr-21 18:17 34.352568 -115.226314 262 8498ft 122kts
28-Apr-21 18:18 34.347730 -115.266760 262 8498ft 120kts
28-Apr-21 18:19 34.342928 -115.306762 262 8497ft 119kts
28-Apr-21 18:20 34.338097 -115.346919 262 8500ft 120kts
28-Apr-21 18:21 34.333245 -115.387114 262 8499ft 120kts
28-Apr-21 18:22 34.328395 -115.427163 262 8499ft 120kts
28-Apr-21 18:23 34.323538 -115.467173 262 8499ft 120kts
28-Apr-21 18:24 34.318683 -115.507058 262 8499ft 120kts
28-Apr-21 18:25 34.313816 -115.546944 261 8499ft 119kts
28-Apr-21 18:26 34.308903 -115.587062 261 8501ft 120kts
28-Apr-21 18:27 34.303977 -115.627191 261 8499ft 120kts
28-Apr-21 18:28 34.299066 -115.667110 261 8498ft 120kts
28-Apr-21 18:29 34.294136 -115.707035 261 8500ft 119kts
28-Apr-21 18:30 34.289208 -115.746828 261 8499ft 119kts
28-Apr-21 18:31 34.284262 -115.786715 261 8499ft 119kts
28-Apr-21 18:32 34.279322 -115.826415 261 8506ft 119kts
28-Apr-21 18:33 34.274290 -115.866681 261 8501ft 122kts
28-Apr-21 18:34 34.269247 -115.906989 261 8498ft 120kts
28-Apr-21 18:35 34.264242 -115.946897 261 8499ft 120kts
28-Apr-21 18:36 34.259213 -115.986893 261 8500ft 120kts
28-Apr-21 18:37 34.254180 -116.026789 261 8501ft 120kts
28-Apr-21 18:38 34.249121 -116.066750 261 8502ft 121kts
28-Apr-21 18:39 34.244030 -116.106931 261 8498ft 120kts
28-Apr-21 18:40 34.238957 -116.146814 261 8500ft 120kts
28-Apr-21 18:41 34.233881 -116.186601 261 8500ft 120kts
28-Apr-21 18:42 34.228770 -116.226587 261 8499ft 120kts
28-Apr-21 18:43 34.223662 -116.266471 261 8499ft 120kts
28-Apr-21 18:44 34.218520 -116.306453 261 8499ft 120kts
28-Apr-21 18:45 34.213381 -116.346319 261 8500ft 120kts
28-Apr-21 18:46 34.208232 -116.386180 261 8498ft 120kts
28-Apr-21 18:47 34.203064 -116.426059 261 8501ft 120kts
28-Apr-21 18:48 34.197927 -116.465709 261 8496ft 119kts
28-Apr-21 18:49 34.192721 -116.505618 261 8500ft 120kts
28-Apr-21 18:50 34.187517 -116.545519 261 8499ft 120kts
28-Apr-21 18:51 34.182318 -116.585220 261 8498ft 119kts
28-Apr-21 18:52 34.177125 -116.624729 261 8502ft 119kts
28-Apr-21 18:53 34.172023 -116.663475 261 8709ft 106kts
28-Apr-21 18:54 34.167705 -116.696265 261 9118ft 100kts
28-Apr-21 18:55 34.163616 -116.727134 261 9516ft 78kts
28-Apr-21 18:56 34.159869 -116.755958 261 9373ft 114kts
28-Apr-21 18:57 34.155340 -116.797923 289 8847ft 131kts
28-Apr-21 18:58 34.178383 -116.829343 289 8522ft 123kts
28-Apr-21 18:59 34.189054 -116.867197 287 8499ft 116kts
28-Apr-21 19:00 34.191503 -116.904054 315 8501ft 113kts
28-Apr-21 19:01 34.223075 -116.903379 5 8501ft 117kts
28-Apr-21 19:02 34.238216 -116.877210 100 8497ft 120kts
28-Apr-21 19:03 34.239458 -116.840054 13 8496ft 117kts
28-Apr-21 19:04 34.257223 -116.867395 289 8497ft 111kts
28-Apr-21 19:05 34.258465 -116.904205 263 8497ft 111kts
28-Apr-21 19:06 34.251320 -116.940420 244 8498ft 111kts
28-Apr-21 19:07 34.236649 -116.973564 238 8500ft 112kts
28-Apr-21 19:08 34.211350 -116.996359 216 8502ft 114kts
28-Apr-21 19:09 34.184717 -117.018507 216 8480ft 113kts
28-Apr-21 19:10 34.156882 -117.041599 216 8089ft 129kts
28-Apr-21 19:11 34.124892 -117.068494 216 7115ft 143kts
28-Apr-21 19:12 34.100325 -117.096913 251 6151ft 110kts
28-Apr-21 19:13 34.093341 -117.133617 242 4465ft 114kts
28-Apr-21 19:14 34.078188 -117.166722 267 2871ft 105kts
28-Apr-21 19:15 34.080541 -117.199494 270 2013ft 84kts
28-Apr-21 19:16 34.078828 -117.224414 261 1724ft 78kts
28-Apr-21 19:17 34.072046 -117.247572 249 1569ft 72kts
28-Apr-21 19:18 34.077579 -117.266088 326 1358ft 69kts
28-Apr-21 19:19 34.089688 -117.253805 67 1221ft 70kts
28-Apr-21 19:20 34.094077 -117.241278 41 1108ft 15kts
28-Apr-21 19:21 34.094538 -117.240853 34 1108ft 0kts
28-Apr-21 19:22 34.095394 -117.240137 40 1111ft 17kts
28-Apr-21 19:23 34.096620 -117.236913 69 1123ft 10kts
28-Apr-21 19:24 34.098099 -117.231919 70 1137ft 21kts
28-Apr-21 19:25 34.099794 -117.227944 10 1143ft 7kts
28-Apr-21 19:26 34.101342 -117.228106 322 1144ft 5kts
28-Apr-21 19:27 34.101266 -117.228445 189 1143ft 0kts
28-Apr-21 19:28 34.101266 -117.228445 189 1143ft 0kts
28-Apr-21 19:29 34.101266 -117.228445 189 1143ft 0kts

Navigation Log

Ident Type
Flight plan parsing failed, navigation log unavailable